createdAt,value
2022-11-13T00:04:12.845Z,32.75
2022-11-13T00:12:39.280Z,32.30
2022-11-13T00:21:08.600Z,35.47
2022-11-13T00:29:35.500Z,41.17
2022-11-13T00:37:59.307Z,32.45
2022-11-13T00:46:25.652Z,27.55
2022-11-13T00:54:49.593Z,22.40
2022-11-13T01:12:07.058Z,20.48
2022-11-13T01:21:36.814Z,21.50
2022-11-13T01:30:07.510Z,20.08
2022-11-13T01:38:36.867Z,22.02
2022-11-13T01:47:01.398Z,23.65
2022-11-13T01:55:28.297Z,26.40
2022-11-13T02:03:52.110Z,24.48
2022-11-13T02:12:21.865Z,28.23
2022-11-13T02:20:53.982Z,20.50
2022-11-13T02:29:20.922Z,16.00
2022-11-13T02:37:45.161Z,13.70
2022-11-13T02:46:11.980Z,17.15
2022-11-13T02:54:35.921Z,20.55
2022-11-13T03:03:02.661Z,29.48
2022-11-13T03:11:26.547Z,32.22
2022-11-13T03:19:53.548Z,20.80
2022-11-13T03:28:17.801Z,23.17
2022-11-13T03:36:44.223Z,16.35
2022-11-13T03:45:09.200Z,27.55
2022-11-13T03:53:35.965Z,22.15
2022-11-13T04:02:00.192Z,20.02
2022-11-13T04:18:50.015Z,15.82
2022-11-13T04:27:16.757Z,18.70
2022-11-13T04:35:41.884Z,18.05
2022-11-13T04:44:08.643Z,17.88
2022-11-13T04:52:32.573Z,26.40
2022-11-13T05:00:59.165Z,18.45
2022-11-13T05:09:23.280Z,42.90
2022-11-13T05:17:52.122Z,15.15
2022-11-13T05:26:17.112Z,22.55
2022-11-13T05:34:44.081Z,21.75
2022-11-13T05:43:08.008Z,15.73
2022-11-13T05:51:37.930Z,13.15
2022-11-13T06:00:01.663Z,20.58
2022-11-13T06:08:28.517Z,15.88
2022-11-13T06:16:52.719Z,17.60
2022-11-13T06:25:19.410Z,14.82
2022-11-13T06:33:44.686Z,25.95
2022-11-13T06:42:11.408Z,17.63
2022-11-13T06:50:35.398Z,51.03
2022-11-13T06:59:06.292Z,13.75
2022-11-13T07:07:32.217Z,12.68
2022-11-13T07:16:15.784Z,18.88
2022-11-13T07:24:40.825Z,31.23
2022-11-13T07:33:08.187Z,14.68
2022-11-13T07:41:32.287Z,15.63
2022-11-13T07:50:05.520Z,25.25
2022-11-13T07:58:32.801Z,15.57
2022-11-13T08:06:59.589Z,14.95
2022-11-13T08:15:23.773Z,14.93
2022-11-13T08:23:50.514Z,14.88
2022-11-13T08:32:17.893Z,18.00
2022-11-13T08:40:44.732Z,12.90
2022-11-13T08:49:09.146Z,15.63
2022-11-13T08:57:36.104Z,18.17
2022-11-13T09:06:00.085Z,16.25
2022-11-13T09:14:28.290Z,14.45
2022-11-13T09:22:52.385Z,15.50
2022-11-13T09:31:19.431Z,19.95
2022-11-13T09:39:43.465Z,14.57
2022-11-13T09:48:21.919Z,24.42
2022-11-13T09:56:49.961Z,18.65
2022-11-13T10:05:25.014Z,19.50
2022-11-13T10:13:52.395Z,16.88
2022-11-13T10:22:32.862Z,20.83
2022-11-13T10:30:57.881Z,20.02
2022-11-13T10:39:24.714Z,21.33
2022-11-13T10:48:04.357Z,22.23
2022-11-13T10:56:33.809Z,23.48
2022-11-13T11:05:09.541Z,20.63
2022-11-13T11:13:35.894Z,20.77
2022-11-13T11:22:09.947Z,23.15
2022-11-13T11:30:42.984Z,23.13
2022-11-13T11:39:18.469Z,23.92
2022-11-13T11:47:45.574Z,20.83
2022-11-13T11:56:26.569Z,22.88
2022-11-13T12:05:03.900Z,31.30
2022-11-13T12:13:32.475Z,23.05
2022-11-13T12:22:07.393Z,22.48
2022-11-13T12:30:45.178Z,22.08
2022-11-13T12:39:33.699Z,24.98
2022-11-13T12:47:57.861Z,17.15
2022-11-13T12:56:34.165Z,19.77
2022-11-13T13:05:11.161Z,18.33
2022-11-13T13:13:43.890Z,18.00
2022-11-13T13:22:14.114Z,15.13
2022-11-13T13:30:57.427Z,14.93
2022-11-13T13:39:38.924Z,19.90
2022-11-13T13:48:10.826Z,15.93
2022-11-13T13:56:35.353Z,15.88
2022-11-13T14:05:01.987Z,12.98
2022-11-13T14:13:27.900Z,17.48
2022-11-13T14:21:56.695Z,14.93
2022-11-13T14:30:27.422Z,26.10
2022-11-13T14:38:55.142Z,28.70
2022-11-13T14:47:28.701Z,24.00
2022-11-13T14:55:57.711Z,25.83
2022-11-13T15:04:21.731Z,29.38
2022-11-13T15:12:48.991Z,25.73
2022-11-13T15:21:12.855Z,30.45
2022-11-13T15:29:39.639Z,28.60
2022-11-13T15:38:03.900Z,38.88
2022-11-13T15:46:30.871Z,46.75
2022-11-13T15:54:55.851Z,51.55
2022-11-13T16:03:23.885Z,68.07
2022-11-13T16:11:47.857Z,63.00
2022-11-13T16:29:07.134Z,48.53
2022-11-13T16:37:27.865Z,49.90
2022-11-13T16:45:52.372Z,48.45
2022-11-13T16:54:19.156Z,57.35
2022-11-13T17:02:43.180Z,56.45
2022-11-13T17:11:09.617Z,64.30
2022-11-13T17:19:33.865Z,62.45
2022-11-13T17:28:00.421Z,53.25
2022-11-13T17:36:24.825Z,58.63
2022-11-13T17:44:51.553Z,53.15
2022-11-13T17:53:16.172Z,50.80
2022-11-13T18:01:42.891Z,55.33
2022-11-13T18:10:07.233Z,49.80
2022-11-13T18:18:33.898Z,50.05
2022-11-13T18:26:57.877Z,48.05
2022-11-13T18:35:24.621Z,44.92
2022-11-13T18:43:50.248Z,50.85
2022-11-13T18:52:17.172Z,58.40
2022-11-13T19:00:41.440Z,56.35
2022-11-13T19:17:32.028Z,64.07
2022-11-13T19:25:58.742Z,64.97
2022-11-13T19:34:22.698Z,66.00
2022-11-13T19:42:49.497Z,76.68
2022-11-13T19:51:15.800Z,86.38
2022-11-13T19:59:42.703Z,76.70
2022-11-13T20:08:06.870Z,66.93
2022-11-13T20:24:57.189Z,60.40
2022-11-13T20:33:24.001Z,61.60
2022-11-13T20:41:47.924Z,58.80
2022-11-13T20:50:14.894Z,60.88
2022-11-13T20:58:39.305Z,62.28
2022-11-13T21:07:06.148Z,48.78
2022-11-13T21:15:30.385Z,47.20
2022-11-13T21:23:59.486Z,50.75
2022-11-13T21:32:23.673Z,43.25
2022-11-13T21:41:10.620Z,36.67
2022-11-13T21:49:34.592Z,34.38
2022-11-13T21:58:01.447Z,31.38
2022-11-13T22:06:27.178Z,37.28
2022-11-13T22:14:53.669Z,39.20
2022-11-13T22:23:17.550Z,35.83
2022-11-13T22:31:45.103Z,35.53
2022-11-13T22:40:10.217Z,37.85
2022-11-13T22:48:37.878Z,41.47
2022-11-13T22:57:04.291Z,45.10
2022-11-13T23:05:30.653Z,58.97
2022-11-13T23:13:55.852Z,66.78
2022-11-13T23:22:22.282Z,66.03
2022-11-13T23:30:46.357Z,65.63
2022-11-13T23:39:15.002Z,60.90
2022-11-13T23:47:39.162Z,50.80
2022-11-13T23:56:05.835Z,46.55
